Time;durP1;ratioP1;P1;durP2;ratioP2;P2;SDS_P1;SDS_P2;PMS_P1;PMS_P2;Temp;Humidity;BMP_temperature;BMP_pressure;BME280_temperature;BME280_humidity;BME280_pressure;Samples;Min_cycle;Max_cycle;Signal;HPM_P1;HPM_P2
2021/11/07 00:07:51;;;;;;;17.42;10.80;;;14.20;99.90;;;;;;4942080;29;20043;-78
2021/11/07 00:13:16;;;;;;;17.50;11.38;;;14.20;99.90;;;;;;4955820;29;20013;-79
2021/11/07 00:15:44;;;;;;;19.50;11.43;;;14.30;99.90;;;;;;4955662;29;20061;-81
2021/11/07 00:18:18;;;;;;;16.27;11.00;;;14.20;99.90;;;;;;4955844;29;20053;-81
2021/11/07 00:23:48;;;;;;;17.58;12.23;;;14.10;99.90;;;;;;4956360;29;20051;-79
2021/11/07 00:37:11;;;;;;;18.88;11.23;;;13.80;99.90;;;;;;4964642;28;20057;-81
2021/11/07 00:42:29;;;;;;;15.93;10.52;;;13.90;99.90;;;;;;4955479;28;20043;-83
2021/11/07 00:45:02;;;;;;;16.63;11.18;;;13.90;99.90;;;;;;4955351;28;20380;-86
2021/11/07 00:50:14;;;;;;;15.65;9.52;;;13.90;99.90;;;;;;4953892;29;20051;-86
2021/11/07 00:52:55;;;;;;;16.10;10.48;;;13.80;99.90;;;;;;4938349;29;20079;-83
2021/11/07 00:55:41;;;;;;;17.70;10.80;;;13.70;99.90;;;;;;4955162;29;20039;-84
2021/11/07 00:58:15;;;;;;;15.05;9.95;;;13.80;99.90;;;;;;4955212;29;20103;-82
2021/11/07 01:00:59;;;;;;;15.13;10.02;;;13.90;99.90;;;;;;4955392;29;20458;-83
2021/11/07 01:03:26;;;;;;;17.13;10.20;;;14.00;99.90;;;;;;4955149;29;20063;-83
2021/11/07 01:05:57;;;;;;;17.40;10.20;;;13.90;99.90;;;;;;4960307;28;20037;-82
2021/11/07 01:08:26;;;;;;;14.38;9.57;;;13.90;99.90;;;;;;4974880;28;20455;-83
2021/11/07 01:10:54;;;;;;;14.88;9.75;;;13.90;99.90;;;;;;4973006;28;20046;-85
2021/11/07 01:13:21;;;;;;;12.48;9.25;;;13.90;99.90;;;;;;4973947;28;20051;-79
2021/11/07 01:15:48;;;;;;;14.70;9.20;;;13.90;99.90;;;;;;4974258;28;20127;-79
2021/11/07 01:18:16;;;;;;;16.40;9.38;;;13.80;99.90;;;;;;4957031;28;20051;-80
2021/11/07 01:20:43;;;;;;;16.05;9.32;;;13.60;99.90;;;;;;4974037;28;20045;-84
2021/11/07 01:25:50;;;;;;;15.05;9.65;;;13.70;99.90;;;;;;4956403;28;20198;-80
2021/11/07 01:28:19;;;;;;;15.80;9.77;;;13.50;99.90;;;;;;4956900;28;20069;-82
2021/11/07 01:30:54;;;;;;;12.43;8.57;;;13.50;99.90;;;;;;4973639;28;20078;-82
2021/11/07 01:33:27;;;;;;;13.60;9.32;;;13.60;99.90;;;;;;4973766;28;20115;-79
2021/11/07 01:41:30;;;;;;;14.38;9.68;;;13.60;99.90;;;;;;4956258;28;20051;-81
2021/11/07 01:43:58;;;;;;;16.92;9.88;;;13.50;99.90;;;;;;4973165;28;20125;-78
2021/11/07 01:46:31;;;;;;;16.13;10.57;;;13.50;99.90;;;;;;4973684;28;20074;-78
2021/11/07 01:51:31;;;;;;;17.90;10.80;;;13.40;99.90;;;;;;4973431;28;20050;-83
2021/11/07 01:54:26;;;;;;;15.15;9.80;;;13.50;99.90;;;;;;4956159;28;20051;-81
2021/11/07 01:56:49;;;;;;;16.10;9.90;;;13.50;99.90;;;;;;4955876;28;20051;-81
2021/11/07 01:59:18;;;;;;;17.95;10.55;;;13.50;99.90;;;;;;4973601;28;20047;-83
2021/11/07 02:01:52;;;;;;;15.90;9.48;;;13.40;99.90;;;;;;4956705;28;20193;-84
2021/11/07 02:04:19;;;;;;;18.35;9.90;;;13.50;99.90;;;;;;4956347;28;20053;-82
2021/11/07 02:06:47;;;;;;;14.43;9.75;;;13.50;99.90;;;;;;4972798;28;20206;-82
2021/11/07 02:09:14;;;;;;;16.80;9.98;;;13.60;99.90;;;;;;4972331;28;20389;-83
2021/11/07 02:11:43;;;;;;;17.00;11.05;;;13.60;99.90;;;;;;4973182;28;20066;-81
2021/11/07 02:14:10;;;;;;;14.45;9.98;;;13.50;99.90;;;;;;4968472;28;20065;-81
2021/11/07 02:16:39;;;;;;;16.70;10.65;;;13.50;99.90;;;;;;4953757;29;20043;-80
2021/11/07 02:19:06;;;;;;;15.95;10.43;;;13.40;99.90;;;;;;4953934;29;20121;-78
2021/11/07 02:21:34;;;;;;;15.95;10.57;;;13.40;99.90;;;;;;4953598;29;20492;-78
2021/11/07 02:24:02;;;;;;;16.08;10.40;;;13.40;99.90;;;;;;4953622;29;20450;-79
2021/11/07 02:26:29;;;;;;;17.75;10.40;;;13.30;99.90;;;;;;4953729;28;20055;-81
2021/11/07 02:28:59;;;;;;;16.90;10.43;;;13.40;99.90;;;;;;4953762;28;20047;-80
2021/11/07 02:31:27;;;;;;;15.63;10.50;;;13.30;99.90;;;;;;4953299;28;20765;-81
2021/11/07 02:33:54;;;;;;;14.57;10.05;;;13.30;99.90;;;;;;4953442;28;20063;-81
2021/11/07 02:36:21;;;;;;;18.27;10.60;;;13.20;99.90;;;;;;4953682;28;20122;-81
2021/11/07 02:38:49;;;;;;;14.75;10.23;;;13.20;99.90;;;;;;4953588;29;20129;-80
2021/11/07 02:41:16;;;;;;;15.43;10.48;;;13.20;99.90;;;;;;4953429;29;20043;-81
2021/11/07 02:43:48;;;;;;;14.23;9.50;;;13.10;99.90;;;;;;4952541;29;20040;-81
2021/11/07 02:46:17;;;;;;;14.50;10.30;;;13.00;99.90;;;;;;4953688;29;20063;-80
2021/11/07 02:48:47;;;;;;;24.75;11.15;;;13.10;99.90;;;;;;4953578;28;20051;-81
2021/11/07 02:51:14;;;;;;;17.10;11.35;;;13.10;99.90;;;;;;4953800;29;20043;-79
2021/11/07 02:53:42;;;;;;;18.83;11.55;;;13.20;99.90;;;;;;4953365;29;20414;-79
2021/11/07 02:56:10;;;;;;;17.30;10.93;;;13.20;99.90;;;;;;4953141;29;20067;-78
2021/11/07 02:58:40;;;;;;;19.58;11.10;;;13.30;99.90;;;;;;4953232;29;20070;-77
2021/11/07 03:01:08;;;;;;;16.02;11.32;;;13.30;99.90;;;;;;4953253;28;20040;-80
2021/11/07 03:03:36;;;;;;;17.33;10.98;;;13.50;99.90;;;;;;4953083;28;20388;-81
2021/11/07 03:06:03;;;;;;;16.60;9.68;;;13.50;99.90;;;;;;4956359;29;20114;-78
2021/11/07 03:08:31;;;;;;;15.30;10.52;;;13.50;99.90;;;;;;4957856;28;20053;-82
2021/11/07 03:10:59;;;;;;;17.50;10.88;;;13.50;99.90;;;;;;4956864;29;20070;-82
2021/11/07 03:13:27;;;;;;;19.25;10.82;;;13.40;99.90;;;;;;4956926;29;20102;-83
2021/11/07 03:15:56;;;;;;;17.52;11.38;;;13.40;99.90;;;;;;4958814;29;20043;-83
2021/11/07 03:18:23;;;;;;;16.92;10.65;;;13.30;99.90;;;;;;4956188;29;20054;-81
2021/11/07 03:20:52;;;;;;;15.35;10.20;;;13.30;99.90;;;;;;4957548;29;20053;-80
2021/11/07 03:23:20;;;;;;;14.23;9.55;;;13.30;99.90;;;;;;4956889;29;20058;-81
2021/11/07 03:25:50;;;;;;;15.30;10.23;;;13.20;99.90;;;;;;4955980;29;20039;-83
2021/11/07 03:28:18;;;;;;;17.33;10.73;;;13.30;99.90;;;;;;4957333;29;20049;-84
2021/11/07 03:31:04;;;;;;;19.92;11.40;;;13.40;99.90;;;;;;4955411;29;20341;-81
2021/11/07 03:33:39;;;;;;;19.58;12.10;;;13.30;99.90;;;;;;4956854;28;20039;-80
2021/11/07 03:36:07;;;;;;;15.25;10.75;;;13.40;99.90;;;;;;4956778;29;20045;-81
2021/11/07 03:38:36;;;;;;;20.92;10.93;;;13.30;99.90;;;;;;4970965;28;20134;-80
2021/11/07 03:41:04;;;;;;;16.20;10.95;;;13.30;99.90;;;;;;4956504;28;20043;-79
2021/11/07 03:43:31;;;;;;;17.13;10.52;;;13.20;99.90;;;;;;4956988;28;20062;-79
2021/11/07 03:45:59;;;;;;;16.95;9.98;;;13.10;99.90;;;;;;4956496;29;20039;-80
2021/11/07 03:48:26;;;;;;;14.40;10.15;;;13.20;99.90;;;;;;4956592;29;20122;-77
2021/11/07 03:50:54;;;;;;;17.50;11.60;;;13.00;99.90;;;;;;4956443;28;20138;-79
2021/11/07 03:53:22;;;;;;;16.63;10.55;;;12.50;99.90;;;;;;4956278;28;20049;-80
2021/11/07 03:55:50;;;;;;;16.25;10.68;;;12.70;99.90;;;;;;4956639;29;20051;-78
2021/11/07 03:58:17;;;;;;;16.50;11.15;;;12.80;99.90;;;;;;4956370;28;20047;-77
2021/11/07 04:00:45;;;;;;;15.10;10.00;;;12.90;99.90;;;;;;4956252;29;20051;-77
2021/11/07 04:03:13;;;;;;;16.35;10.73;;;13.00;99.90;;;;;;4956196;29;20051;-80
2021/11/07 04:05:41;;;;;;;18.58;10.85;;;13.00;99.90;;;;;;4956226;29;20376;-81
2021/11/07 04:08:09;;;;;;;16.58;9.80;;;13.10;99.90;;;;;;4938107;29;20051;-78
2021/11/07 04:10:37;;;;;;;16.00;10.40;;;13.10;99.90;;;;;;4937207;29;20051;-80
2021/11/07 04:13:08;;;;;;;15.68;10.73;;;13.20;99.90;;;;;;4942535;29;20131;-79
2021/11/07 04:15:36;;;;;;;15.52;10.45;;;13.10;99.90;;;;;;4956103;28;20043;-80
2021/11/07 04:18:05;;;;;;;16.85;10.18;;;13.10;99.90;;;;;;4955691;29;20044;-79
2021/11/07 04:20:32;;;;;;;16.27;10.63;;;13.10;99.90;;;;;;4955998;29;20418;-81
2021/11/07 04:23:00;;;;;;;16.58;10.27;;;13.10;99.90;;;;;;4955842;29;20053;-80
2021/11/07 04:25:27;;;;;;;18.13;10.23;;;13.20;99.90;;;;;;4955480;28;20098;-81
2021/11/07 04:27:54;;;;;;;14.77;9.80;;;13.00;99.90;;;;;;4955668;29;20393;-80
2021/11/07 04:30:22;;;;;;;17.52;10.60;;;12.90;99.90;;;;;;4955613;29;20135;-80
2021/11/07 04:32:49;;;;;;;18.55;11.20;;;13.00;99.90;;;;;;4955482;29;20446;-80
2021/11/07 04:35:16;;;;;;;22.20;11.35;;;13.00;99.90;;;;;;4970683;28;20043;-80
2021/11/07 04:37:44;;;;;;;18.52;11.00;;;13.00;99.90;;;;;;4938211;29;20521;-80
2021/11/07 04:40:15;;;;;;;18.40;11.40;;;13.00;99.90;;;;;;4955970;29;20472;-82
2021/11/07 04:42:45;;;;;;;19.38;11.02;;;12.90;99.90;;;;;;4955316;29;20118;-82
2021/11/07 04:45:12;;;;;;;17.05;11.68;;;12.80;99.90;;;;;;4955767;29;20123;-81
2021/11/07 04:47:41;;;;;;;17.65;10.88;;;12.70;99.90;;;;;;4938384;28;20135;-81
2021/11/07 04:50:10;;;;;;;17.67;12.00;;;12.70;99.90;;;;;;4938592;29;20055;-77
2021/11/07 04:52:37;;;;;;;20.83;11.50;;;12.70;99.90;;;;;;4954034;29;20074;-82
2021/11/07 04:55:06;;;;;;;14.73;10.75;;;12.70;99.90;;;;;;4938105;29;20051;-78
2021/11/07 04:57:34;;;;;;;17.08;11.65;;;12.60;99.90;;;;;;4955119;29;20058;-80
2021/11/07 05:00:01;;;;;;;17.80;11.30;;;12.60;99.90;;;;;;4955241;29;20067;-81
2021/11/07 05:02:28;;;;;;;18.08;11.80;;;12.60;99.90;;;;;;4954812;29;20039;-78
2021/11/07 05:04:56;;;;;;;20.25;12.63;;;12.60;99.90;;;;;;4955297;29;20047;-79
2021/11/07 05:07:23;;;;;;;18.38;11.50;;;12.60;99.90;;;;;;4965324;28;20133;-80
2021/11/07 05:09:50;;;;;;;16.55;10.68;;;12.60;99.90;;;;;;4957162;28;20046;-81
2021/11/07 05:12:18;;;;;;;17.63;11.18;;;12.60;99.90;;;;;;4974175;28;20053;-79
2021/11/07 05:14:45;;;;;;;19.27;11.60;;;12.60;99.90;;;;;;4973164;28;20061;-81
2021/11/07 05:17:13;;;;;;;20.50;12.20;;;12.70;99.90;;;;;;4973950;28;20049;-79
2021/11/07 05:19:40;;;;;;;22.08;11.95;;;12.70;99.90;;;;;;4989092;28;20454;-79
2021/11/07 05:22:07;;;;;;;17.85;11.35;;;12.80;99.90;;;;;;4974139;28;20043;-79
2021/11/07 05:24:35;;;;;;;19.38;11.82;;;12.70;99.90;;;;;;4972948;28;20038;-82
2021/11/07 05:27:03;;;;;;;17.73;12.25;;;12.70;99.90;;;;;;4956390;28;20082;-80
2021/11/07 05:29:30;;;;;;;17.23;11.60;;;12.80;99.90;;;;;;4956955;28;20049;-78
2021/11/07 05:31:59;;;;;;;18.73;11.77;;;12.70;99.90;;;;;;4973624;28;20401;-80
2021/11/07 05:34:27;;;;;;;22.27;11.50;;;12.80;99.90;;;;;;4974100;28;20053;-79
2021/11/07 05:36:55;;;;;;;17.30;10.95;;;12.80;99.90;;;;;;4973561;28;20129;-80
2021/11/07 05:39:23;;;;;;;19.70;11.20;;;12.80;99.90;;;;;;4972451;28;20042;-81
2021/11/07 05:41:50;;;;;;;21.50;12.13;;;12.90;99.90;;;;;;4973399;28;20047;-81
2021/11/07 05:44:17;;;;;;;22.25;13.05;;;12.80;99.90;;;;;;4973484;28;20047;-80
2021/11/07 05:46:45;;;;;;;18.80;12.27;;;12.70;99.90;;;;;;4973415;28;20066;-80
2021/11/07 05:49:12;;;;;;;17.35;11.35;;;12.80;99.90;;;;;;4973519;28;20409;-82
2021/11/07 05:51:39;;;;;;;19.88;11.82;;;12.80;99.90;;;;;;4988550;28;20065;-80
2021/11/07 05:54:07;;;;;;;18.83;11.13;;;12.90;99.90;;;;;;4973476;28;20450;-80
2021/11/07 05:56:34;;;;;;;20.08;12.25;;;12.80;99.90;;;;;;4973009;28;20045;-80
2021/11/07 05:59:02;;;;;;;18.25;11.98;;;12.90;99.90;;;;;;4973653;28;20042;-81
2021/11/07 06:01:29;;;;;;;21.05;12.38;;;12.80;99.90;;;;;;4987963;28;20043;-79
2021/11/07 06:03:56;;;;;;;20.95;12.63;;;12.80;99.90;;;;;;4973386;28;20129;-80
2021/11/07 06:06:24;;;;;;;24.95;12.98;;;12.70;99.90;;;;;;4972095;28;20118;-82
2021/11/07 06:08:51;;;;;;;20.85;11.93;;;12.60;99.90;;;;;;4953870;29;20043;-83
2021/11/07 06:11:20;;;;;;;18.98;11.90;;;12.80;99.90;;;;;;4953564;29;20053;-82
2021/11/07 06:13:48;;;;;;;16.90;11.32;;;13.00;99.90;;;;;;4964257;28;20712;-78
2021/11/07 06:16:15;;;;;;;16.85;11.57;;;13.00;99.90;;;;;;4958733;28;20537;-78
2021/11/07 06:18:43;;;;;;;22.63;11.35;;;13.00;99.90;;;;;;4971447;28;20082;-77
2021/11/07 06:21:11;;;;;;;17.30;11.63;;;13.10;99.90;;;;;;4951701;29;20043;-77
2021/11/07 06:23:39;;;;;;;21.13;12.73;;;13.10;99.90;;;;;;4953766;29;20051;-76
2021/11/07 06:26:06;;;;;;;16.15;11.50;;;13.10;99.90;;;;;;4952576;29;20434;-78
2021/11/07 06:28:34;;;;;;;19.55;12.52;;;13.20;99.90;;;;;;4954864;28;20421;-78
2021/11/07 06:31:05;;;;;;;21.20;11.68;;;13.10;99.90;;;;;;4972810;28;20070;-78
2021/11/07 06:33:33;;;;;;;;;;;13.20;99.90;;;;;;4973177;28;20129;-76
2021/11/07 06:36:00;;;;;;;18.20;11.77;;;13.10;99.90;;;;;;4971853;28;19922;-75
2021/11/07 06:38:28;;;;;;;18.30;12.85;;;13.20;99.90;;;;;;4971486;28;20047;-76
2021/11/07 06:40:55;;;;;;;19.45;12.00;;;13.20;99.90;;;;;;4969370;28;20053;-75
2021/11/07 06:43:22;;;;;;;20.58;12.43;;;13.20;99.90;;;;;;4971804;28;20046;-77
2021/11/07 06:45:49;;;;;;;21.77;12.50;;;13.30;99.90;;;;;;4972616;28;20383;-75
2021/11/07 06:48:17;;;;;;;20.55;12.15;;;13.30;99.90;;;;;;4955397;28;20057;-75
2021/11/07 06:50:44;;;;;;;18.20;12.48;;;13.10;99.90;;;;;;4970802;28;20046;-75
2021/11/07 06:53:11;;;;;;;23.45;13.27;;;13.20;99.90;;;;;;4954508;28;20043;-76
2021/11/07 06:55:39;;;;;;;19.75;12.38;;;13.10;99.90;;;;;;4972034;28;20398;-76
2021/11/07 06:58:06;;;;;;;21.75;13.02;;;13.20;99.90;;;;;;4971657;28;20035;-76
2021/11/07 07:00:34;;;;;;;20.70;12.82;;;13.40;99.90;;;;;;4972342;28;20053;-78
2021/11/07 07:03:01;;;;;;;19.35;12.88;;;13.50;99.90;;;;;;4970443;28;20411;-78
2021/11/07 07:05:29;;;;;;;20.65;12.60;;;13.60;99.90;;;;;;4971295;28;20043;-77
2021/11/07 07:08:06;;;;;;;21.05;12.90;;;13.70;99.90;;;;;;4960681;28;20122;-76
2021/11/07 07:10:37;;;;;;;21.60;13.32;;;13.70;99.90;;;;;;4953045;29;20057;-76
2021/11/07 07:15:38;;;;;;;23.85;15.15;;;13.60;99.90;;;;;;4968409;28;20053;-78
2021/11/07 07:18:17;;;;;;;22.73;15.30;;;13.70;99.90;;;;;;4952445;28;20035;-78
2021/11/07 07:21:04;;;;;;;19.70;14.15;;;13.90;99.90;;;;;;4935406;29;20439;-76
2021/11/07 07:29:49;;;;;;;24.10;14.60;;;14.30;99.90;;;;;;4959660;28;20507;-77
2021/11/07 07:34:42;;;;;;;41.17;23.92;;;14.20;99.90;;;;;;4971132;28;20047;-74
2021/11/07 07:37:10;;;;;;;38.70;25.17;;;14.90;99.90;;;;;;4971798;28;20049;-75
2021/11/07 07:39:37;;;;;;;40.53;25.33;;;15.20;99.90;;;;;;4985246;28;20043;-76
2021/11/07 07:42:05;;;;;;;26.40;16.63;;;15.40;99.90;;;;;;4971475;28;20043;-74
2021/11/07 07:44:34;;;;;;;24.92;16.15;;;15.40;99.90;;;;;;4970673;28;20042;-75
2021/11/07 07:47:02;;;;;;;23.27;15.65;;;15.30;99.90;;;;;;4972377;28;20043;-75
2021/11/07 07:49:29;;;;;;;22.55;14.40;;;15.20;99.90;;;;;;4971098;28;20065;-77
2021/11/07 07:51:58;;;;;;;22.75;13.98;;;14.70;99.90;;;;;;4972793;28;20049;-76
2021/11/07 07:54:25;;;;;;;169.43;96.20;;;14.20;99.90;;;;;;4958183;28;20046;-78
2021/11/07 07:56:52;;;;;;;94.38;55.85;;;14.70;99.90;;;;;;4975041;28;20118;-76
2021/11/07 07:59:20;;;;;;;32.63;21.85;;;15.10;99.90;;;;;;4974576;28;20138;-75
2021/11/07 08:01:47;;;;;;;41.00;28.67;;;15.30;99.90;;;;;;4973840;28;20070;-75
2021/11/07 08:04:14;;;;;;;49.22;31.38;;;15.60;99.90;;;;;;4973773;28;20043;-73
2021/11/07 08:06:42;;;;;;;53.63;33.42;;;15.60;99.90;;;;;;4974634;28;20049;-77
2021/11/07 08:09:10;;;;;;;20.60;15.10;;;15.60;99.90;;;;;;4975550;28;20049;-77
2021/11/07 08:11:39;;;;;;;22.35;14.52;;;15.30;99.90;;;;;;4974636;28;20069;-75
2021/11/07 08:14:06;;;;;;;22.92;14.50;;;15.30;99.90;;;;;;4972233;28;20527;-77
2021/11/07 08:16:35;;;;;;;25.38;14.48;;;15.40;99.90;;;;;;4957399;28;20471;-79
2021/11/07 08:19:02;;;;;;;20.10;14.02;;;15.50;99.90;;;;;;4974921;28;20050;-75
2021/11/07 08:21:36;;;;;;;19.63;14.60;;;15.30;99.90;;;;;;4957825;28;20090;-76
2021/11/07 08:24:09;;;;;;;19.92;14.38;;;15.30;99.90;;;;;;4974839;28;20071;-75
2021/11/07 08:26:40;;;;;;;20.92;14.70;;;15.10;99.90;;;;;;4986734;28;20047;-84
2021/11/07 08:29:09;;;;;;;20.38;14.18;;;15.20;99.90;;;;;;4974166;28;20047;-82
2021/11/07 08:31:38;;;;;;;21.00;13.90;;;15.10;99.90;;;;;;4966046;28;20053;-77
2021/11/07 08:34:06;;;;;;;23.38;14.25;;;15.20;99.90;;;;;;4974028;28;20162;-77
2021/11/07 08:39:15;;;;;;;22.70;14.13;;;15.30;99.90;;;;;;4972837;28;20047;-77
2021/11/07 08:41:47;;;;;;;26.27;14.65;;;15.70;99.90;;;;;;4974316;28;20042;-79
2021/11/07 09:01:27;;;;;;;59.88;37.67;;;18.50;99.90;;;;;;4971421;28;20057;-80
2021/11/07 09:06:58;;;;;;;24.98;15.45;;;18.70;99.90;;;;;;4973232;28;20042;-80
2021/11/07 09:09:33;;;;;;;23.85;16.00;;;19.20;99.90;;;;;;4974100;28;20049;-78
2021/11/07 09:12:02;;;;;;;25.08;15.52;;;19.60;99.90;;;;;;4973278;28;20494;-76
2021/11/07 09:14:37;;;;;;;27.80;14.30;;;19.50;99.90;;;;;;4969983;28;20055;-77
2021/11/07 09:17:07;;;;;;;24.10;14.55;;;20.00;99.90;;;;;;4974138;28;20049;-79
2021/11/07 09:19:37;;;;;;;23.10;15.55;;;20.30;99.90;;;;;;4971186;28;20487;-78
2021/11/07 09:22:14;;;;;;;65.78;16.65;;;20.40;99.90;;;;;;4954852;28;20043;-78
2021/11/07 09:24:51;;;;;;;26.13;14.23;;;20.10;99.90;;;;;;4952067;29;20046;-76
2021/11/07 09:29:57;;;;;;;22.38;14.27;;;19.50;99.90;;;;;;4968802;28;20123;-75
2021/11/07 09:40:09;;;;;;;;;;;20.20;99.90;;;;;;4974027;28;20047;-76
2021/11/07 09:47:43;;;;;;;;;;;21.40;99.90;;;;;;4972946;28;20062;-79
2021/11/07 09:50:13;;;;;;;31.00;19.90;;;21.40;99.90;;;;;;4971509;28;19922;-76
2021/11/07 09:52:52;;;;;;;62.13;40.80;;;21.70;99.90;;;;;;4973339;28;20133;-76
2021/11/07 09:55:23;;;;;;;58.05;39.03;;;21.80;99.90;;;;;;4972378;28;20045;-78
2021/11/07 09:57:53;;;;;;;26.88;16.55;;;21.60;99.90;;;;;;4973784;28;20038;-78
2021/11/07 10:00:30;;;;;;;27.17;15.68;;;21.30;99.90;;;;;;4971581;28;20050;-78
2021/11/07 10:02:57;;;;;;;23.20;14.65;;;21.10;99.90;;;;;;4972072;28;20046;-79
2021/11/07 10:05:26;;;;;;;22.60;13.90;;;21.60;99.90;;;;;;4972415;28;20042;-79
2021/11/07 10:08:04;;;;;;;23.52;14.68;;;21.80;99.90;;;;;;4973173;28;20130;-79
2021/11/07 10:10:37;;;;;;;25.35;14.73;;;21.90;99.90;;;;;;4973435;28;20105;-75
2021/11/07 10:13:11;;;;;;;23.33;13.15;;;22.20;99.90;;;;;;4971087;28;20700;-78
2021/11/07 10:15:46;;;;;;;25.20;14.00;;;22.60;99.90;;;;;;4956182;28;20050;-77
2021/11/07 10:18:28;;;;;;;25.02;14.32;;;22.70;98.70;;;;;;4972705;28;20043;-78
2021/11/07 10:20:59;;;;;;;29.27;14.70;;;23.00;98.20;;;;;;4973425;28;20142;-77
2021/11/07 10:23:32;;;;;;;20.98;13.82;;;22.90;97.60;;;;;;4972084;28;20405;-78
2021/11/07 10:28:37;;;;;;;23.05;14.40;;;22.90;98.20;;;;;;4972797;28;20034;-80
2021/11/07 10:31:20;;;;;;;20.52;13.70;;;22.80;97.80;;;;;;4972435;28;20046;-76
2021/11/07 10:42:31;;;;;;;64.75;42.17;;;23.10;98.00;;;;;;4972193;28;20046;-76
2021/11/07 10:53:13;;;;;;;20.27;13.45;;;23.30;96.00;;;;;;4971198;28;20043;-78
2021/11/07 10:55:54;;;;;;;60.80;38.90;;;23.10;96.80;;;;;;4972300;28;20050;-75
2021/11/07 10:58:32;;;;;;;66.40;44.13;;;22.90;97.30;;;;;;4972836;28;20360;-76
2021/11/07 11:01:03;;;;;;;89.15;56.38;;;22.70;97.70;;;;;;4966925;28;20125;-75
2021/11/07 11:03:31;;;;;;;34.80;21.77;;;23.10;97.70;;;;;;4961375;28;20122;-78
2021/11/07 11:08:43;;;;;;;25.20;12.93;;;22.60;98.30;;;;;;4961016;28;20042;-74
2021/11/07 11:14:00;;;;;;;19.30;12.88;;;22.40;98.50;;;;;;4961332;28;20059;-78
2021/11/07 11:22:01;;;;;;;;;;;23.00;96.90;;;;;;4963002;28;20458;-79
2021/11/07 11:40:12;;;;;;;22.17;13.77;;;21.60;99.90;;;;;;4956333;29;20043;-79
2021/11/07 11:45:09;;;;;;;28.73;15.20;;;21.90;99.90;;;;;;4955622;28;20442;-80
2021/11/07 11:48:06;;;;;;;24.65;15.52;;;22.10;99.90;;;;;;4953448;28;20047;-81
2021/11/07 11:50:55;;;;;;;29.75;16.85;;;22.20;99.90;;;;;;4972316;28;20051;-80
2021/11/07 11:56:40;;;;;;;30.25;18.35;;;21.90;99.90;;;;;;4969088;28;20443;-79
2021/11/07 12:05:00;;;;;;;25.48;17.65;;;21.50;99.90;;;;;;4972136;28;20130;-79
2021/11/07 12:07:34;;;;;;;29.38;17.55;;;21.40;99.90;;;;;;4975140;28;20043;-79
2021/11/07 12:10:12;;;;;;;28.55;17.00;;;21.40;99.90;;;;;;4967829;28;20049;-80
2021/11/07 12:12:48;;;;;;;27.13;16.42;;;21.40;99.90;;;;;;4974338;28;20046;-79
2021/11/07 12:15:27;;;;;;;26.40;15.43;;;21.10;99.90;;;;;;4971466;28;20118;-81
2021/11/07 12:18:05;;;;;;;29.88;15.43;;;21.20;99.90;;;;;;4968612;28;20453;-77
2021/11/07 12:20:39;;;;;;;29.05;16.35;;;21.20;99.90;;;;;;4974934;28;20061;-81
2021/11/07 12:23:32;;;;;;;30.90;15.82;;;21.60;99.90;;;;;;4954687;28;20125;-78
2021/11/07 12:26:25;;;;;;;30.35;15.68;;;21.50;99.90;;;;;;4958066;28;20053;-79
2021/11/07 12:28:54;;;;;;;25.63;16.00;;;21.40;99.90;;;;;;4974213;28;20072;-81
2021/11/07 12:31:24;;;;;;;22.02;15.57;;;21.20;99.90;;;;;;4974427;28;20143;-81
2021/11/07 12:34:16;;;;;;;27.17;16.08;;;21.30;99.90;;;;;;4972698;28;20046;-79
2021/11/07 12:42:37;;;;;;;26.23;16.30;;;22.20;99.90;;;;;;4973266;28;20048;-80
2021/11/07 12:45:24;;;;;;;26.60;14.88;;;24.40;97.30;;;;;;4972960;28;20431;-82
2021/11/07 12:47:58;;;;;;;24.20;14.77;;;27.00;91.60;;;;;;4971884;28;20106;-81
2021/11/07 12:50:25;;;;;;;30.02;16.02;;;27.20;88.80;;;;;;4948967;28;20043;-79
2021/11/07 12:52:56;;;;;;;24.02;15.40;;;28.00;82.80;;;;;;4968279;28;20047;-79
2021/11/07 12:55:43;;;;;;;25.02;15.25;;;25.50;90.10;;;;;;4973816;28;20051;-78
2021/11/07 12:58:10;;;;;;;26.10;15.77;;;23.60;93.90;;;;;;4971927;28;20086;-78
2021/11/07 13:00:38;;;;;;;28.02;15.52;;;22.40;98.00;;;;;;4973657;28;20042;-77
2021/11/07 13:03:11;;;;;;;27.27;15.77;;;21.80;99.80;;;;;;4974470;28;20487;-79
2021/11/07 13:05:41;;;;;;;24.73;15.23;;;21.80;99.90;;;;;;4973817;28;20043;-78
2021/11/07 13:08:18;;;;;;;24.35;14.70;;;21.80;99.90;;;;;;4970512;28;20386;-77
2021/11/07 13:11:11;;;;;;;26.40;15.05;;;21.70;99.90;;;;;;4953292;29;20122;-79
2021/11/07 13:13:48;;;;;;;25.60;14.55;;;22.00;99.90;;;;;;4955036;28;20079;-79
2021/11/07 13:20:10;;;;;;;23.92;14.43;;;22.50;99.60;;;;;;4965283;28;20066;-80
2021/11/07 13:22:50;;;;;;;31.92;15.82;;;23.20;99.00;;;;;;4963475;28;20051;-79
2021/11/07 13:25:30;;;;;;;26.50;14.98;;;23.80;97.20;;;;;;4972659;28;20493;-80
2021/11/07 13:28:15;;;;;;;28.70;15.88;;;24.30;96.80;;;;;;4965801;28;20035;-79
2021/11/07 13:30:46;;;;;;;42.78;26.70;;;24.60;95.90;;;;;;4968098;28;20051;-73
2021/11/07 13:33:22;;;;;;;72.05;46.63;;;24.50;95.00;;;;;;4964006;28;20038;-78
2021/11/07 13:35:57;;;;;;;48.05;34.38;;;25.10;93.20;;;;;;4963866;28;20125;-81
2021/11/07 13:38:26;;;;;;;28.15;18.75;;;25.00;93.50;;;;;;4960608;28;20051;-81
2021/11/07 13:40:54;;;;;;;35.45;21.08;;;24.20;94.60;;;;;;4962319;28;20137;-83
2021/11/07 13:43:28;;;;;;;29.00;19.00;;;24.70;94.10;;;;;;4966914;28;20414;-80
2021/11/07 13:45:56;;;;;;;27.90;18.48;;;24.50;94.00;;;;;;4958737;28;20043;-79
2021/11/07 13:48:32;;;;;;;24.48;17.23;;;24.60;94.10;;;;;;4963295;28;20490;-81
2021/11/07 13:51:01;;;;;;;26.48;16.80;;;24.60;94.50;;;;;;4964515;28;20433;-78
2021/11/07 13:53:33;;;;;;;23.70;16.25;;;24.50;94.80;;;;;;4966129;28;20390;-82
2021/11/07 13:56:07;;;;;;;26.88;14.55;;;23.90;94.40;;;;;;4957207;28;20146;-80
2021/11/07 13:58:38;;;;;;;26.65;14.20;;;23.90;95.60;;;;;;4967648;28;20045;-81
2021/11/07 14:01:09;;;;;;;21.92;12.95;;;24.20;95.70;;;;;;4972411;28;20134;-80
2021/11/07 14:03:37;;;;;;;20.42;12.77;;;24.20;94.60;;;;;;4973239;28;20035;-85
2021/11/07 14:08:44;;;;;;;19.65;12.40;;;24.30;95.70;;;;;;4954384;28;20042;-82
2021/11/07 14:11:17;;;;;;;19.40;12.20;;;23.80;95.00;;;;;;4967702;28;20405;-76
2021/11/07 14:13:49;;;;;;;23.45;12.32;;;23.80;95.90;;;;;;4972167;28;20073;-78
2021/11/07 14:17:00;;;;;;;22.00;13.35;;;24.00;96.20;;;;;;4964343;28;20082;-78
2021/11/07 14:19:25;;;;;;;105.18;65.68;;;23.80;96.20;;;;;;4972132;28;20543;-79
2021/11/07 14:21:54;;;;;;;89.63;59.20;;;23.40;96.70;;;;;;4969223;28;20679;-78
2021/11/07 14:24:29;;;;;;;188.77;127.13;;;23.30;97.70;;;;;;4967786;28;20133;-77
2021/11/07 14:27:08;;;;;;;171.52;116.78;;;23.20;98.40;;;;;;4972589;28;20049;-80
2021/11/07 14:29:39;;;;;;;130.05;84.68;;;22.80;99.60;;;;;;4968189;28;20074;-82
2021/11/07 14:35:21;;;;;;;40.60;26.55;;;22.20;99.90;;;;;;4954287;28;20583;-80
2021/11/07 14:38:07;;;;;;;24.05;14.75;;;21.80;99.90;;;;;;4953180;29;20107;-82
2021/11/07 14:59:34;;;;;;;25.92;14.07;;;20.50;99.90;;;;;;4968482;28;20159;-85
2021/11/07 15:04:57;;;;;;;24.80;12.93;;;20.20;99.90;;;;;;4964842;28;20039;-83
2021/11/07 15:07:45;;;;;;;30.90;14.50;;;19.90;99.90;;;;;;4968865;28;20058;-76
2021/11/07 15:10:25;;;;;;;25.17;14.55;;;19.70;99.90;;;;;;4963167;28;20039;-80
2021/11/07 15:13:27;;;;;;;22.15;14.35;;;19.60;99.90;;;;;;4966503;28;20059;-80
2021/11/07 15:22:10;;;;;;;25.17;14.73;;;19.20;99.90;;;;;;4963101;28;20047;-79
2021/11/07 15:24:44;;;;;;;25.60;14.32;;;19.10;99.90;;;;;;4966792;28;20702;-79
2021/11/07 15:27:15;;;;;;;27.90;16.25;;;19.00;99.90;;;;;;4966098;28;20038;-78
2021/11/07 15:29:47;;;;;;;27.55;14.95;;;19.00;99.90;;;;;;4967794;28;20043;-84
2021/11/07 15:32:16;;;;;;;27.63;15.20;;;19.00;99.90;;;;;;4960306;28;20484;-78
2021/11/07 15:34:46;;;;;;;28.75;15.88;;;19.00;99.90;;;;;;4974159;28;20413;-79
2021/11/07 15:37:28;;;;;;;28.33;15.65;;;19.00;99.90;;;;;;4974911;28;20122;-82
2021/11/07 15:39:59;;;;;;;26.20;14.98;;;19.00;99.90;;;;;;4970319;28;20117;-83
2021/11/07 15:42:28;;;;;;;;;;;19.10;99.90;;;;;;4957292;29;20047;-81
2021/11/07 15:45:01;;;;;;;25.83;15.50;;;19.10;99.90;;;;;;4968287;28;19961;-81
2021/11/07 15:47:44;;;;;;;24.23;14.68;;;19.10;99.90;;;;;;4975665;28;20122;-81
2021/11/07 15:50:32;;;;;;;30.88;15.57;;;19.00;99.90;;;;;;4975196;28;20577;-78
2021/11/07 16:03:44;;;;;;;32.55;17.35;;;18.90;99.90;;;;;;4956242;29;20379;-80
2021/11/07 16:11:17;;;;;;;26.95;16.27;;;18.90;99.90;;;;;;4973024;28;20050;-81
2021/11/07 16:14:12;;;;;;;27.33;15.82;;;18.90;99.90;;;;;;4972767;28;20051;-82